^^
Station Historical Data
Daily Summary for January 2, 2018 Units:  Both    English   Metric
« Previous Day
Next Day »
Daily Weekly Monthly Yearly Custom
  High: Low: Average:
Temperature: TemperatureF °F /  -17.8 °C 62.2 °F /  16.8 °C 77.7 °F /  25.4 °C
Dew Point: DewpointF °F /  -17.8 °C 20.8 °F /  -6.2 °C 28 °F /  -2.2 °C
Humidity: Humidity% 9% 17%
Wind Speed: WindSpeedMPHmph /  0km/h - 2.3mph /  3.7km/h
Wind Gust: WindSpeedGustMPHmph /  0km/h - -
Wind- - SE
Pressure: PressureIn in /  0 hPa 30.05 in /  1017.5 hPa -
Precipitation: 0.00 in /  0 mm    
Historical Graphs
 
 
Tabular Data for January 2, 2018
Time Temperature Dew Point Pressure Wind Wind Speed Wind Gust Humidity Rainfall Rate (Hourly) solar Conditions
TemperatureF °F /  -17.8 °C DewpointF °F /  -17.8 °C PressureInin /  0hPa Calm     Humidity% HourlyPrecipInin /  0mm SolarRadiationWatts/m^2 W/m2 Conditions
00:00 71.6 °F /  22 °C 30.7 °F /  -0.7 °C 30.14in /  1020.5hPa SW 2.9mph /  4.7km/h 5.0mph /  8km/h 22% 0.00in /  0mm 0.0 W/m2
00:03 71.6 °F /  22 °C 30.7 °F /  -0.7 °C 30.14in /  1020.5hPa SSE 0.9mph /  1.4km/h 2.0mph /  3.2km/h 22% 0.00in /  0mm 0.0 W/m2
00:08 71.8 °F /  22.1 °C 32.0 °F /  0 °C 30.14in /  1020.5hPa Calm   4.0mph /  6.4km/h 23% 0.00in /  0mm 0.0 W/m2
00:13 71.8 °F /  22.1 °C 32.0 °F /  0 °C 30.14in /  1020.5hPa Calm   1.0mph /  1.6km/h 23% 0.00in /  0mm 0.0 W/m2
00:19 71.4 °F /  21.9 °C 31.6 °F /  -0.2 °C 30.13in /  1020.2hPa Calm     23% 0.00in /  0mm 0.0 W/m2
00:24 71.4 °F /  21.9 °C 31.6 °F /  -0.2 °C 30.13in /  1020.2hPa Calm   1.0mph /  1.6km/h 23% 0.00in /  0mm 0.0 W/m2
00:26 71.2 °F /  21.8 °C 31.5 °F /  -0.3 °C 30.13in /  1020.2hPa Calm   1.0mph /  1.6km/h 23% 0.00in /  0mm 0.0 W/m2
00:29 71.1 °F /  21.7 °C 31.5 °F /  -0.3 °C 30.13in /  1020.2hPa Calm     23% 0.00in /  0mm 0.0 W/m2
00:34 70.9 °F /  21.6 °C 32.4 °F /  0.2 °C 30.13in /  1020.2hPa Calm   1.0mph /  1.6km/h 24% 0.00in /  0mm 0.0 W/m2
00:39 70.7 °F /  21.5 °C 32.2 °F /  0.1 °C 30.13in /  1020.2hPa Calm   5.0mph /  8km/h 24% 0.00in /  0mm 0.0 W/m2
00:43 70.5 °F /  21.4 °C 33.1 °F /  0.6 °C 30.12in /  1019.9hPa South 2.0mph /  3.2km/h 5.0mph /  8km/h 25% 0.00in /  0mm 0.0 W/m2
00:48 70.5 °F /  21.4 °C 33.1 °F /  0.6 °C 30.12in /  1019.9hPa East 6.0mph /  9.7km/h 6.0mph /  9.7km/h 25% 0.00in /  0mm 0.0 W/m2
00:53 70.9 °F /  21.6 °C 33.3 °F /  0.7 °C 30.12in /  1019.9hPa SSE 8.1mph /  13km/h 8.1mph /  13km/h 25% 0.00in /  0mm 0.0 W/m2
00:59 70.9 °F /  21.6 °C 32.4 °F /  0.2 °C 30.12in /  1019.9hPa SSE 0.9mph /  1.4km/h 7.0mph /  11.3km/h 24% 0.00in /  0mm 0.0 W/m2
01:05 70.9 °F /  21.6 °C 32.4 °F /  0.2 °C 30.12in /  1019.9hPa ESE 2.9mph /  4.7km/h 7.0mph /  11.3km/h 24% 0.00in /  0mm 0.0 W/m2
01:08 71.1 °F /  21.7 °C 32.4 °F /  0.2 °C 30.12in /  1019.9hPa ESE 0.9mph /  1.4km/h 8.0mph /  12.9km/h 24% 0.00in /  0mm 0.0 W/m2
01:13 71.1 °F /  21.7 °C 32.4 °F /  0.2 °C 30.11in /  1019.5hPa ESE 2.9mph /  4.7km/h 5.0mph /  8km/h 24% 0.00in /  0mm 0.0 W/m2
01:18 71.1 °F /  21.7 °C 32.4 °F /  0.2 °C 30.11in /  1019.5hPa SE 2.9mph /  4.7km/h 14.0mph /  22.5km/h 24% 0.00in /  0mm 0.0 W/m2
01:24 70.9 °F /  21.6 °C 32.4 °F /  0.2 °C 30.11in /  1019.5hPa SE 4.0mph /  6.4km/h 5.0mph /  8km/h 24% 0.00in /  0mm 0.0 W/m2
01:25 70.9 °F /  21.6 °C 32.4 °F /  0.2 °C 30.11in /  1019.5hPa ESE 2.0mph /  3.2km/h 5.0mph /  8km/h 24% 0.00in /  0mm 0.0 W/m2
01:28 71.1 °F /  21.7 °C 32.4 °F /  0.2 °C 30.11in /  1019.5hPa SE 2.0mph /  3.2km/h 4.0mph /  6.4km/h 24% 0.00in /  0mm 0.0 W/m2
01:34 70.9 °F /  21.6 °C 32.4 °F /  0.2 °C 30.11in /  1019.5hPa SSE 6.9mph /  11.1km/h 11.0mph /  17.7km/h 24% 0.00in /  0mm 0.0 W/m2
01:39 70.9 °F /  21.6 °C 32.4 °F /  0.2 °C 30.11in /  1019.5hPa SSE 12.1mph /  19.5km/h 13.0mph /  20.9km/h 24% 0.00in /  0mm 0.0 W/m2
01:44 70.9 °F /  21.6 °C 32.4 °F /  0.2 °C 30.11in /  1019.5hPa SSE 4.0mph /  6.4km/h 8.0mph /  12.9km/h 24% 0.00in /  0mm 0.0 W/m2
01:49 70.9 °F /  21.6 °C 32.4 °F /  0.2 °C 30.11in /  1019.5hPa SE 4.9mph /  7.9km/h 5.0mph /  8km/h 24% 0.00in /  0mm 0.0 W/m2
01:55 70.5 °F /  21.4 °C 32.0 °F /  0 °C 30.11in /  1019.5hPa Calm   5.0mph /  8km/h 24% 0.00in /  0mm 0.0 W/m2
01:58 70.5 °F /  21.4 °C 32.0 °F /  0 °C 30.11in /  1019.5hPa ESE 4.0mph /  6.4km/h 5.0mph /  8km/h 24% 0.00in /  0mm 0.0 W/m2
02:03 70.3 °F /  21.3 °C 31.8 °F /  -0.1 °C 30.10in /  1019.2hPa SE 0.9mph /  1.4km/h 5.0mph /  8km/h 24% 0.00in /  0mm 0.0 W/m2
02:08 70.2 °F /  21.2 °C 31.6 °F /  -0.2 °C 30.11in /  1019.5hPa WSW 4.0mph /  6.4km/h 4.0mph /  6.4km/h 24% 0.00in /  0mm 0.0 W/m2
02:14 70.2 °F /  21.2 °C 31.6 °F /  -0.2 °C 30.10in /  1019.2hPa SE 6.9mph /  11.1km/h 8.0mph /  12.9km/h 24% 0.00in /  0mm 0.0 W/m2
02:20 70.2 °F /  21.2 °C 30.6 °F /  -0.8 °C 30.10in /  1019.2hPa ESE 2.0mph /  3.2km/h 8.0mph /  12.9km/h 23% 0.00in /  0mm 0.0 W/m2
02:24 70.2 °F /  21.2 °C 30.6 °F /  -0.8 °C 30.10in /  1019.2hPa Calm   3.0mph /  4.8km/h 23% 0.00in /  0mm 0.0 W/m2
02:29 70.0 °F /  21.1 °C 30.6 °F /  -0.8 °C 30.10in /  1019.2hPa Calm   2.0mph /  3.2km/h 23% 0.00in /  0mm 0.0 W/m2
02:34 69.8 °F /  21 °C 31.5 °F /  -0.3 °C 30.10in /  1019.2hPa Calm   4.0mph /  6.4km/h 24% 0.00in /  0mm 0.0 W/m2
02:39 69.6 °F /  20.9 °C 31.3 °F /  -0.4 °C 30.10in /  1019.2hPa Calm   2.0mph /  3.2km/h 24% 0.00in /  0mm 0.0 W/m2
02:46 69.4 °F /  20.8 °C 31.1 °F /  -0.5 °C 30.10in /  1019.2hPa Calm     24% 0.00in /  0mm 0.0 W/m2
02:51 69.3 °F /  20.7 °C 30.9 °F /  -0.6 °C 30.10in /  1019.2hPa Calm   2.0mph /  3.2km/h 24% 0.00in /  0mm 0.0 W/m2
02:56 68.9 °F /  20.5 °C 30.6 °F /  -0.8 °C 30.10in /  1019.2hPa NNE 2.9mph /  4.7km/h 5.0mph /  8km/h 24% 0.00in /  0mm 0.0 W/m2
03:01 68.7 °F /  20.4 °C 30.4 °F /  -0.9 °C 30.09in /  1018.8hPa NNE 0.9mph /  1.4km/h 2.0mph /  3.2km/h 24% 0.00in /  0mm 0.0 W/m2
03:06 68.5 °F /  20.3 °C 30.4 °F /  -0.9 °C 30.09in /  1018.8hPa Calm   3.0mph /  4.8km/h 24% 0.00in /  0mm 0.0 W/m2
03:11 68.4 °F /  20.2 °C 30.2 °F /  -1 °C 30.10in /  1019.2hPa East 2.9mph /  4.7km/h 5.0mph /  8km/h 24% 0.00in /  0mm 0.0 W/m2
03:15 68.2 °F /  20.1 °C 30.0 °F /  -1.1 °C 30.10in /  1019.2hPa ENE 2.9mph /  4.7km/h 3.0mph /  4.8km/h 24% 0.00in /  0mm 0.0 W/m2
03:20 68.0 °F /  20 °C 29.8 °F /  -1.2 °C 30.10in /  1019.2hPa NNE 0.9mph /  1.4km/h 3.0mph /  4.8km/h 24% 0.00in /  0mm 0.0 W/m2
03:21 68.0 °F /  20 °C 29.8 °F /  -1.2 °C 30.10in /  1019.2hPa Calm   1.0mph /  1.6km/h 24% 0.00in /  0mm 0.0 W/m2
03:26 67.8 °F /  19.9 °C 29.7 °F /  -1.3 °C 30.10in /  1019.2hPa SE 0.9mph /  1.4km/h 3.0mph /  4.8km/h 24% 0.00in /  0mm 0.0 W/m2
03:29 67.6 °F /  19.8 °C 29.5 °F /  -1.4 °C 30.10in /  1019.2hPa SE 2.0mph /  3.2km/h 5.0mph /  8km/h 24% 0.00in /  0mm 0.0 W/m2
03:35 67.5 °F /  19.7 °C 29.5 °F /  -1.4 °C 30.09in /  1018.8hPa East 2.0mph /  3.2km/h 3.0mph /  4.8km/h 24% 0.00in /  0mm 0.0 W/m2
03:40 67.3 °F /  19.6 °C 30.2 °F /  -1 °C 30.10in /  1019.2hPa SSE 2.0mph /  3.2km/h 3.0mph /  4.8km/h 25% 0.00in /  0mm 0.0 W/m2
03:45 67.3 °F /  19.6 °C 29.3 °F /  -1.5 °C 30.09in /  1018.8hPa SE 0.9mph /  1.4km/h 3.0mph /  4.8km/h 24% 0.00in /  0mm 0.0 W/m2
03:50 67.3 °F /  19.6 °C 30.2 °F /  -1 °C 30.10in /  1019.2hPa Calm   1.0mph /  1.6km/h 25% 0.00in /  0mm 0.0 W/m2
03:55 66.9 °F /  19.4 °C 30.0 °F /  -1.1 °C 30.09in /  1018.8hPa Calm   2.0mph /  3.2km/h 25% 0.00in /  0mm 0.0 W/m2
03:56 66.9 °F /  19.4 °C 30.0 °F /  -1.1 °C 30.09in /  1018.8hPa Calm   1.0mph /  1.6km/h 25% 0.00in /  0mm 0.0 W/m2
04:01 66.6 °F /  19.2 °C 29.7 °F /  -1.3 °C 30.10in /  1019.2hPa Calm   2.0mph /  3.2km/h 25% 0.00in /  0mm 0.0 W/m2
04:05 66.4 °F /  19.1 °C 29.5 °F /  -1.4 °C 30.10in /  1019.2hPa Calm   1.0mph /  1.6km/h 25% 0.00in /  0mm 0.0 W/m2
04:10 66.0 °F /  18.9 °C 28.2 °F /  -2.1 °C 30.10in /  1019.2hPa ESE 0.9mph /  1.4km/h 5.0mph /  8km/h 24% 0.00in /  0mm 0.0 W/m2
04:15 65.7 °F /  18.7 °C 27.9 °F /  -2.3 °C 30.10in /  1019.2hPa ESE 0.9mph /  1.4km/h 1.0mph /  1.6km/h 24% 0.00in /  0mm 0.0 W/m2
04:21 65.5 °F /  18.6 °C 27.7 °F /  -2.4 °C 30.10in /  1019.2hPa Calm   3.0mph /  4.8km/h 24% 0.00in /  0mm 0.0 W/m2
04:26 65.5 °F /  18.6 °C 27.7 °F /  -2.4 °C 30.10in /  1019.2hPa East 2.0mph /  3.2km/h 3.0mph /  4.8km/h 24% 0.00in /  0mm 0.0 W/m2
04:29 65.3 °F /  18.5 °C 27.5 °F /  -2.5 °C 30.10in /  1019.2hPa ENE 2.9mph /  4.7km/h 3.0mph /  4.8km/h 24% 0.00in /  0mm 0.0 W/m2
04:34 65.1 °F /  18.4 °C 26.4 °F /  -3.1 °C 30.10in /  1019.2hPa East 0.9mph /  1.4km/h 5.0mph /  8km/h 23% 0.00in /  0mm 0.0 W/m2
04:44 64.9 °F /  18.3 °C 26.2 °F /  -3.2 °C 30.10in /  1019.2hPa Calm   2.0mph /  3.2km/h 23% 0.00in /  0mm 0.0 W/m2
04:49 64.9 °F /  18.3 °C 26.2 °F /  -3.2 °C 30.10in /  1019.2hPa East 2.0mph /  3.2km/h 5.0mph /  8km/h 23% 0.00in /  0mm 0.0 W/m2
05:00 64.9 °F /  18.3 °C 26.2 °F /  -3.2 °C 30.10in /  1019.2hPa Calm   2.0mph /  3.2km/h 23% 0.00in /  0mm 0.0 W/m2
05:06 64.9 °F /  18.3 °C 27.3 °F /  -2.6 °C 30.10in /  1019.2hPa Calm   3.0mph /  4.8km/h 24% 0.00in /  0mm 0.0 W/m2
05:20 64.8 °F /  18.2 °C 27.1 °F /  -2.7 °C 30.11in /  1019.5hPa Calm   2.0mph /  3.2km/h 24% 0.00in /  0mm 0.0 W/m2
05:25 64.2 °F /  17.9 °C 26.6 °F /  -3 °C 30.11in /  1019.5hPa ESE 0.9mph /  1.4km/h 6.0mph /  9.7km/h 24% 0.00in /  0mm 0.0 W/m2
05:30 64.0 °F /  17.8 °C 26.6 °F /  -3 °C 30.11in /  1019.5hPa ENE 2.9mph /  4.7km/h 4.0mph /  6.4km/h 24% 0.00in /  0mm 0.0 W/m2
05:35 63.9 °F /  17.7 °C 26.4 °F /  -3.1 °C 30.11in /  1019.5hPa Calm   3.0mph /  4.8km/h 24% 0.00in /  0mm 0.0 W/m2
05:40 63.7 °F /  17.6 °C 27.1 °F /  -2.7 °C 30.11in /  1019.5hPa ENE 0.9mph /  1.4km/h 2.0mph /  3.2km/h 25% 0.00in /  0mm 0.0 W/m2
05:45 63.5 °F /  17.5 °C 27.0 °F /  -2.8 °C 30.11in /  1019.5hPa Calm   3.0mph /  4.8km/h 25% 0.00in /  0mm 0.0 W/m2
05:50 63.3 °F /  17.4 °C 27.0 °F /  -2.8 °C 30.11in /  1019.5hPa ENE 2.0mph /  3.2km/h 3.0mph /  4.8km/h 25% 0.00in /  0mm 0.0 W/m2
05:56 63.1 °F /  17.3 °C 26.8 °F /  -2.9 °C 30.11in /  1019.5hPa Calm   3.0mph /  4.8km/h 25% 0.00in /  0mm 0.0 W/m2
06:02 63.0 °F /  17.2 °C 26.6 °F /  -3 °C 30.12in /  1019.9hPa Calm   4.0mph /  6.4km/h 25% 0.00in /  0mm 0.0 W/m2
06:07 62.8 °F /  17.1 °C 26.4 °F /  -3.1 °C 30.12in /  1019.9hPa East 0.9mph /  1.4km/h 1.0mph /  1.6km/h 25% 0.00in /  0mm 0.0 W/m2
06:10 62.8 °F /  17.1 °C 26.4 °F /  -3.1 °C 30.12in /  1019.9hPa ENE 0.9mph /  1.4km/h 5.0mph /  8km/h 25% 0.00in /  0mm 0.0 W/m2
06:15 62.4 °F /  16.9 °C 26.1 °F /  -3.3 °C 30.12in /  1019.9hPa ENE 2.0mph /  3.2km/h 4.0mph /  6.4km/h 25% 0.00in /  0mm 5.0 W/m2
06:20 62.4 °F /  16.9 °C 27.1 °F /  -2.7 °C 30.12in /  1019.9hPa ESE 0.9mph /  1.4km/h 3.0mph /  4.8km/h 26% 0.00in /  0mm 7.0 W/m2
06:30 62.2 °F /  16.8 °C 27.0 °F /  -2.8 °C 30.13in /  1020.2hPa ENE 0.9mph /  1.4km/h 2.0mph /  3.2km/h 26% 0.00in /  0mm 9.0 W/m2
06:33 62.2 °F /  16.8 °C 27.0 °F /  -2.8 °C 30.13in /  1020.2hPa ENE 4.0mph /  6.4km/h 4.0mph /  6.4km/h 26% 0.00in /  0mm 11.0 W/m2
06:38 62.2 °F /  16.8 °C 27.0 °F /  -2.8 °C 30.13in /  1020.2hPa ENE 2.9mph /  4.7km/h 3.0mph /  4.8km/h 26% 0.00in /  0mm 12.0 W/m2
06:43 62.2 °F /  16.8 °C 27.0 °F /  -2.8 °C 30.13in /  1020.2hPa NE 2.9mph /  4.7km/h 3.0mph /  4.8km/h 26% 0.00in /  0mm 12.0 W/m2
06:48 62.2 °F /  16.8 °C 27.0 °F /  -2.8 °C 30.13in /  1020.2hPa Calm   2.0mph /  3.2km/h 26% 0.00in /  0mm 14.0 W/m2
06:50 62.2 °F /  16.8 °C 27.9 °F /  -2.3 °C 30.13in /  1020.2hPa SE 0.9mph /  1.4km/h 2.0mph /  3.2km/h 27% 0.00in /  0mm 16.0 W/m2
06:55 62.2 °F /  16.8 °C 27.9 °F /  -2.3 °C 30.14in /  1020.5hPa Calm   2.0mph /  3.2km/h 27% 0.00in /  0mm 16.0 W/m2
07:00 62.4 °F /  16.9 °C 28.0 °F /  -2.2 °C 30.14in /  1020.5hPa Calm   5.0mph /  8km/h 27% 0.00in /  0mm 18.0 W/m2
07:05 62.8 °F /  17.1 °C 28.2 °F /  -2.1 °C 30.14in /  1020.5hPa NE 0.9mph /  1.4km/h 7.0mph /  11.3km/h 27% 0.00in /  0mm 19.0 W/m2
07:15 63.3 °F /  17.4 °C 27.9 °F /  -2.3 °C 30.15in /  1020.9hPa ESE 2.0mph /  3.2km/h 4.0mph /  6.4km/h 26% 0.00in /  0mm 21.0 W/m2
07:20 64.2 °F /  17.9 °C 27.7 °F /  -2.4 °C 30.15in /  1020.9hPa Calm   7.0mph /  11.3km/h 25% 0.00in /  0mm 21.0 W/m2
07:25 64.8 °F /  18.2 °C 27.1 °F /  -2.7 °C 30.15in /  1020.9hPa NNE 4.0mph /  6.4km/h 8.0mph /  12.9km/h 24% 0.00in /  0mm 21.0 W/m2
07:30 65.7 °F /  18.7 °C 26.8 °F /  -2.9 °C 30.15in /  1020.9hPa East 6.9mph /  11.1km/h 7.0mph /  11.3km/h 23% 0.00in /  0mm 23.0 W/m2
07:35 66.4 °F /  19.1 °C 27.5 °F /  -2.5 °C 30.15in /  1020.9hPa East 2.9mph /  4.7km/h 7.0mph /  11.3km/h 23% 0.00in /  0mm 23.0 W/m2
07:39 66.7 °F /  19.3 °C 26.6 °F /  -3 °C 30.15in /  1020.9hPa SE 2.0mph /  3.2km/h 5.0mph /  8km/h 22% 0.00in /  0mm 25.0 W/m2
07:44 67.3 °F /  19.6 °C 27.1 °F /  -2.7 °C 30.15in /  1020.9hPa ENE 2.0mph /  3.2km/h 5.0mph /  8km/h 22% 0.00in /  0mm 26.0 W/m2
07:47 67.6 °F /  19.8 °C 28.6 °F /  -1.9 °C 30.15in /  1020.9hPa NE 0.9mph /  1.4km/h 6.0mph /  9.7km/h 23% 0.00in /  0mm 72.0 W/m2
07:52 67.8 °F /  19.9 °C 28.6 °F /  -1.9 °C 30.15in /  1020.9hPa ESE 0.9mph /  1.4km/h 5.0mph /  8km/h 23% 0.00in /  0mm 359.0 W/m2
07:57 68.4 °F /  20.2 °C 28.0 °F /  -2.2 °C 30.15in /  1020.9hPa ENE 0.9mph /  1.4km/h 6.0mph /  9.7km/h 22% 0.00in /  0mm 394.0 W/m2
08:02 69.3 °F /  20.7 °C 27.7 °F /  -2.4 °C 30.15in /  1020.9hPa Calm   4.0mph /  6.4km/h 21% 0.00in /  0mm 417.0 W/m2
08:08 70.3 °F /  21.3 °C 27.3 °F /  -2.6 °C 30.15in /  1020.9hPa East 2.9mph /  4.7km/h 7.0mph /  11.3km/h 20% 0.00in /  0mm 438.0 W/m2
08:09 70.5 °F /  21.4 °C 27.5 °F /  -2.5 °C 30.15in /  1020.9hPa East 6.0mph /  9.7km/h 6.0mph /  9.7km/h 20% 0.00in /  0mm 441.0 W/m2
08:14 71.4 °F /  21.9 °C 29.5 °F /  -1.4 °C 30.15in /  1020.9hPa Calm   6.0mph /  9.7km/h 21% 0.00in /  0mm 462.0 W/m2
08:19 72.3 °F /  22.4 °C 27.7 °F /  -2.4 °C 30.15in /  1020.9hPa NE 4.0mph /  6.4km/h 7.0mph /  11.3km/h 19% 0.00in /  0mm 482.0 W/m2
08:24 73.2 °F /  22.9 °C 28.4 °F /  -2 °C 30.15in /  1020.9hPa Calm   6.0mph /  9.7km/h 19% 0.00in /  0mm 503.0 W/m2
08:29 73.8 °F /  23.2 °C 30.2 °F /  -1 °C 30.15in /  1020.9hPa NE 0.9mph /  1.4km/h 3.0mph /  4.8km/h 20% 0.00in /  0mm 520.0 W/m2
08:34 74.5 °F /  23.6 °C 28.2 °F /  -2.1 °C 30.15in /  1020.9hPa East 2.0mph /  3.2km/h 5.0mph /  8km/h 18% 0.00in /  0mm 543.0 W/m2
08:39 74.8 °F /  23.8 °C 29.8 °F /  -1.2 °C 30.15in /  1020.9hPa East 4.0mph /  6.4km/h 5.0mph /  8km/h 19% 0.00in /  0mm 561.0 W/m2
08:44 75.4 °F /  24.1 °C 27.5 °F /  -2.5 °C 30.16in /  1021.2hPa NE 4.9mph /  7.9km/h 7.0mph /  11.3km/h 17% 0.00in /  0mm 580.0 W/m2
08:55 75.7 °F /  24.3 °C 29.3 °F /  -1.5 °C 30.16in /  1021.2hPa SSE 2.0mph /  3.2km/h 2.0mph /  3.2km/h 18% 0.00in /  0mm 621.0 W/m2
09:00 75.9 °F /  24.4 °C 29.3 °F /  -1.5 °C 30.16in /  1021.2hPa East 2.0mph /  3.2km/h 8.0mph /  12.9km/h 18% 0.00in /  0mm 640.0 W/m2
09:05 76.1 °F /  24.5 °C 29.5 °F /  -1.4 °C 30.16in /  1021.2hPa ESE 0.9mph /  1.4km/h 6.0mph /  9.7km/h 18% 0.00in /  0mm 656.0 W/m2
09:11 76.3 °F /  24.6 °C 29.7 °F /  -1.3 °C 30.16in /  1021.2hPa ENE 2.9mph /  4.7km/h 6.0mph /  9.7km/h 18% 0.00in /  0mm 675.0 W/m2
09:17 76.6 °F /  24.8 °C 30.0 °F /  -1.1 °C 30.16in /  1021.2hPa ESE 2.0mph /  3.2km/h 5.0mph /  8km/h 18% 0.00in /  0mm 696.0 W/m2
09:23 76.8 °F /  24.9 °C 28.8 °F /  -1.8 °C 30.16in /  1021.2hPa East 0.9mph /  1.4km/h 6.0mph /  9.7km/h 17% 0.00in /  0mm 714.0 W/m2
09:28 76.8 °F /  24.9 °C 30.0 °F /  -1.1 °C 30.17in /  1021.6hPa SE 0.9mph /  1.4km/h 5.0mph /  8km/h 18% 0.00in /  0mm 735.0 W/m2
09:33 77.0 °F /  25 °C 30.2 °F /  -1 °C 30.17in /  1021.6hPa ESE 0.9mph /  1.4km/h 7.0mph /  11.3km/h 18% 0.00in /  0mm 751.0 W/m2
09:38 77.5 °F /  25.3 °C 29.3 °F /  -1.5 °C 30.17in /  1021.6hPa ENE 4.0mph /  6.4km/h 5.0mph /  8km/h 17% 0.00in /  0mm 768.0 W/m2
09:44 78.3 °F /  25.7 °C 29.8 °F /  -1.2 °C 30.17in /  1021.6hPa NE 4.0mph /  6.4km/h 8.0mph /  12.9km/h 17% 0.00in /  0mm 788.0 W/m2
09:49 78.8 °F /  26 °C 28.8 °F /  -1.8 °C 30.17in /  1021.6hPa ENE 0.9mph /  1.4km/h 7.0mph /  11.3km/h 16% 0.00in /  0mm 803.0 W/m2
09:54 79.2 °F /  26.2 °C 29.1 °F /  -1.6 °C 30.17in /  1021.6hPa ESE 4.0mph /  6.4km/h 7.0mph /  11.3km/h 16% 0.00in /  0mm 819.0 W/m2
10:00 79.3 °F /  26.3 °C 29.3 °F /  -1.5 °C 30.17in /  1021.6hPa South 2.9mph /  4.7km/h 5.0mph /  8km/h 16% 0.00in /  0mm 837.0 W/m2
10:06 79.5 °F /  26.4 °C 29.5 °F /  -1.4 °C 30.17in /  1021.6hPa NNE 4.9mph /  7.9km/h 8.0mph /  12.9km/h 16% 0.00in /  0mm 851.0 W/m2
10:10 79.9 °F /  26.6 °C 29.7 °F /  -1.3 °C 30.17in /  1021.6hPa NE 4.9mph /  7.9km/h 9.0mph /  14.5km/h 16% 0.00in /  0mm 865.0 W/m2
10:15 79.9 °F /  26.6 °C 29.7 °F /  -1.3 °C 30.17in /  1021.6hPa East 4.0mph /  6.4km/h 11.0mph /  17.7km/h 16% 0.00in /  0mm 879.0 W/m2
10:25 80.1 °F /  26.7 °C 28.2 °F /  -2.1 °C 30.17in /  1021.6hPa NE 8.1mph /  13km/h 13.0mph /  20.9km/h 15% 0.00in /  0mm 902.0 W/m2
10:30 79.9 °F /  26.6 °C 29.7 °F /  -1.3 °C 30.17in /  1021.6hPa NE 6.9mph /  11.1km/h 13.0mph /  20.9km/h 16% 0.00in /  0mm 914.0 W/m2
10:36 79.9 °F /  26.6 °C 28.0 °F /  -2.2 °C 30.17in /  1021.6hPa NNE 6.9mph /  11.1km/h 12.0mph /  19.3km/h 15% 0.00in /  0mm 928.0 W/m2
10:41 79.9 °F /  26.6 °C 28.0 °F /  -2.2 °C 30.17in /  1021.6hPa ENE 10.1mph /  16.3km/h 10.1mph /  16.3km/h 15% 0.00in /  0mm 940.0 W/m2
10:45 80.1 °F /  26.7 °C 29.8 °F /  -1.2 °C 30.17in /  1021.6hPa ENE 4.9mph /  7.9km/h 9.0mph /  14.5km/h 16% 0.00in /  0mm 951.0 W/m2
10:50 80.4 °F /  26.9 °C 28.6 °F /  -1.9 °C 30.17in /  1021.6hPa NE 6.0mph /  9.7km/h 9.0mph /  14.5km/h 15% 0.00in /  0mm 962.0 W/m2
10:55 80.8 °F /  27.1 °C 28.8 °F /  -1.8 °C 30.18in /  1021.9hPa SSE 8.1mph /  13km/h 8.1mph /  13km/h 15% 0.00in /  0mm 972.0 W/m2
11:00 81.0 °F /  27.2 °C 28.9 °F /  -1.7 °C 30.17in /  1021.6hPa ENE 8.1mph /  13km/h 9.0mph /  14.5km/h 15% 0.00in /  0mm 983.0 W/m2
11:05 81.7 °F /  27.6 °C 27.9 °F /  -2.3 °C 30.18in /  1021.9hPa ESE 6.9mph /  11.1km/h 9.0mph /  14.5km/h 14% 0.00in /  0mm 993.0 W/m2
11:10 81.9 °F /  27.7 °C 28.0 °F /  -2.2 °C 30.18in /  1021.9hPa ENE 4.9mph /  7.9km/h 7.0mph /  11.3km/h 14% 0.00in /  0mm 1002.0 W/m2
11:15 81.9 °F /  27.7 °C 28.0 °F /  -2.2 °C 30.17in /  1021.6hPa NE 2.0mph /  3.2km/h 12.0mph /  19.3km/h 14% 0.00in /  0mm 1011.0 W/m2
11:20 81.7 °F /  27.6 °C 27.9 °F /  -2.3 °C 30.17in /  1021.6hPa NNW 4.0mph /  6.4km/h 11.0mph /  17.7km/h 14% 0.00in /  0mm 1018.0 W/m2
11:25 82.0 °F /  27.8 °C 28.2 °F /  -2.1 °C 30.17in /  1021.6hPa NE 4.9mph /  7.9km/h 8.0mph /  12.9km/h 14% 0.00in /  0mm 1027.0 W/m2
11:30 82.2 °F /  27.9 °C 28.2 °F /  -2.1 °C 30.17in /  1021.6hPa NNE 2.0mph /  3.2km/h 6.0mph /  9.7km/h 14% 0.00in /  0mm 1035.0 W/m2
11:33 82.2 °F /  27.9 °C 28.2 °F /  -2.1 °C 30.17in /  1021.6hPa NE 0.9mph /  1.4km/h 9.0mph /  14.5km/h 14% 0.00in /  0mm 1039.0 W/m2
11:38 82.9 °F /  28.3 °C 28.8 °F /  -1.8 °C 30.17in /  1021.6hPa North 2.0mph /  3.2km/h 8.0mph /  12.9km/h 14% 0.00in /  0mm 1044.0 W/m2
11:43 83.5 °F /  28.6 °C 30.9 °F /  -0.6 °C 30.17in /  1021.6hPa ESE 4.0mph /  6.4km/h 8.0mph /  12.9km/h 15% 0.00in /  0mm 1051.0 W/m2
11:45 83.5 °F /  28.6 °C 29.3 °F /  -1.5 °C 30.17in /  1021.6hPa East 2.0mph /  3.2km/h 8.0mph /  12.9km/h 14% 0.00in /  0mm 1055.0 W/m2
11:51 83.3 °F /  28.5 °C 29.1 °F /  -1.6 °C 30.17in /  1021.6hPa NNE 6.9mph /  11.1km/h 9.0mph /  14.5km/h 14% 0.00in /  0mm 1062.0 W/m2
11:57 83.8 °F /  28.8 °C 29.5 °F /  -1.4 °C 30.17in /  1021.6hPa ENE 4.0mph /  6.4km/h 8.0mph /  12.9km/h 14% 0.00in /  0mm 1065.0 W/m2
12:01 84.0 °F /  28.9 °C 27.9 °F /  -2.3 °C 30.17in /  1021.6hPa Calm   4.0mph /  6.4km/h 13% 0.00in /  0mm 1069.0 W/m2
12:07 84.4 °F /  29.1 °C 30.0 °F /  -1.1 °C 30.17in /  1021.6hPa ESE 4.9mph /  7.9km/h 9.0mph /  14.5km/h 14% 0.00in /  0mm 1074.0 W/m2
12:14 84.0 °F /  28.9 °C 29.7 °F /  -1.3 °C 30.16in /  1021.2hPa Calm   10.0mph /  16.1km/h 14% 0.00in /  0mm 1078.0 W/m2
12:20 84.6 °F /  29.2 °C 28.4 °F /  -2 °C 30.16in /  1021.2hPa NE 6.0mph /  9.7km/h 10.0mph /  16.1km/h 13% 0.00in /  0mm 1083.0 W/m2
12:23 84.9 °F /  29.4 °C 28.6 °F /  -1.9 °C 30.16in /  1021.2hPa North 4.9mph /  7.9km/h 7.0mph /  11.3km/h 13% 0.00in /  0mm 1083.0 W/m2
12:29 85.1 °F /  29.5 °C 28.8 °F /  -1.8 °C 30.16in /  1021.2hPa NNW 2.9mph /  4.7km/h 10.0mph /  16.1km/h 13% 0.00in /  0mm 1085.0 W/m2
12:34 85.3 °F /  29.6 °C 28.9 °F /  -1.7 °C 30.16in /  1021.2hPa NE 6.0mph /  9.7km/h 10.0mph /  16.1km/h 13% 0.00in /  0mm 1088.0 W/m2
12:39 85.3 °F /  29.6 °C 28.9 °F /  -1.7 °C 30.16in /  1021.2hPa WNW 2.9mph /  4.7km/h 9.0mph /  14.5km/h 13% 0.00in /  0mm 1090.0 W/m2
12:45 85.3 °F /  29.6 °C 28.9 °F /  -1.7 °C 30.16in /  1021.2hPa East 4.0mph /  6.4km/h 10.0mph /  16.1km/h 13% 0.00in /  0mm 1092.0 W/m2
12:50 85.5 °F /  29.7 °C 28.9 °F /  -1.7 °C 30.16in /  1021.2hPa East 2.9mph /  4.7km/h 7.0mph /  11.3km/h 13% 0.00in /  0mm 1079.0 W/m2
12:55 85.8 °F /  29.9 °C 29.3 °F /  -1.5 °C 30.15in /  1020.9hPa Calm   5.0mph /  8km/h 13% 0.00in /  0mm 1072.0 W/m2
13:01 86.0 °F /  30 °C 29.5 °F /  -1.4 °C 30.15in /  1020.9hPa East 0.9mph /  1.4km/h 9.0mph /  14.5km/h 13% 0.00in /  0mm 1079.0 W/m2
13:07 86.5 °F /  30.3 °C 27.9 °F /  -2.3 °C 30.15in /  1020.9hPa NNW 4.9mph /  7.9km/h 10.0mph /  16.1km/h 12% 0.00in /  0mm 1081.0 W/m2
13:09 86.7 °F /  30.4 °C 28.0 °F /  -2.2 °C 30.15in /  1020.9hPa NE 0.9mph /  1.4km/h 6.0mph /  9.7km/h 12% 0.00in /  0mm 1085.0 W/m2
13:19 87.4 °F /  30.8 °C 28.6 °F /  -1.9 °C 30.15in /  1020.9hPa Calm   5.0mph /  8km/h 12% 0.00in /  0mm 1071.0 W/m2
13:25 87.8 °F /  31 °C 28.9 °F /  -1.7 °C 30.15in /  1020.9hPa NNW 2.9mph /  4.7km/h 7.0mph /  11.3km/h 12% 0.00in /  0mm 1074.0 W/m2
13:30 88.2 °F /  31.2 °C 29.1 °F /  -1.6 °C 30.15in /  1020.9hPa ENE 6.0mph /  9.7km/h 6.0mph /  9.7km/h 12% 0.00in /  0mm 1074.0 W/m2
13:35 88.7 °F /  31.5 °C 29.7 °F /  -1.3 °C 30.14in /  1020.5hPa Calm   2.0mph /  3.2km/h 12% 0.00in /  0mm 1071.0 W/m2
13:41 89.2 °F /  31.8 °C 30.0 °F /  -1.1 °C 30.14in /  1020.5hPa ENE 6.9mph /  11.1km/h 8.0mph /  12.9km/h 12% 0.00in /  0mm 1063.0 W/m2
13:46 89.2 °F /  31.8 °C 30.0 °F /  -1.1 °C 30.14in /  1020.5hPa North 2.0mph /  3.2km/h 5.0mph /  8km/h 12% 0.00in /  0mm 1056.0 W/m2
13:51 89.2 °F /  31.8 °C 30.0 °F /  -1.1 °C 30.14in /  1020.5hPa Calm   3.0mph /  4.8km/h 12% 0.00in /  0mm 1053.0 W/m2
13:57 89.6 °F /  32 °C 28.2 °F /  -2.1 °C 30.14in /  1020.5hPa NNE 4.0mph /  6.4km/h 7.0mph /  11.3km/h 11% 0.00in /  0mm 1049.0 W/m2
14:02 89.2 °F /  31.8 °C 27.9 °F /  -2.3 °C 30.13in /  1020.2hPa North 0.9mph /  1.4km/h 4.0mph /  6.4km/h 11% 0.00in /  0mm 1046.0 W/m2
14:07 89.1 °F /  31.7 °C 27.7 °F /  -2.4 °C 30.13in /  1020.2hPa WSW 0.9mph /  1.4km/h 4.0mph /  6.4km/h 11% 0.00in /  0mm 1039.0 W/m2
14:13 88.9 °F /  31.6 °C 27.5 °F /  -2.5 °C 30.13in /  1020.2hPa North 2.9mph /  4.7km/h 4.0mph /  6.4km/h 11% 0.00in /  0mm 1030.0 W/m2
14:16 89.1 °F /  31.7 °C 27.7 °F /  -2.4 °C 30.13in /  1020.2hPa WSW 2.9mph /  4.7km/h 4.0mph /  6.4km/h 11% 0.00in /  0mm 1023.0 W/m2
14:22 89.2 °F /  31.8 °C 27.9 °F /  -2.3 °C 30.12in /  1019.9hPa SW 2.9mph /  4.7km/h 9.0mph /  14.5km/h 11% 0.00in /  0mm 1011.0 W/m2
14:26 88.7 °F /  31.5 °C 27.5 °F /  -2.5 °C 30.12in /  1019.9hPa WSW 0.9mph /  1.4km/h 7.0mph /  11.3km/h 11% 0.00in /  0mm 1004.0 W/m2
14:31 87.8 °F /  31 °C 26.8 °F /  -2.9 °C 30.12in /  1019.9hPa Calm   1.0mph /  1.6km/h 11% 0.00in /  0mm 998.0 W/m2
14:32 87.8 °F /  31 °C 26.8 °F /  -2.9 °C 30.12in /  1019.9hPa Calm   1.0mph /  1.6km/h 11% 0.00in /  0mm 995.0 W/m2
14:37 88.2 °F /  31.2 °C 29.1 °F /  -1.6 °C 30.12in /  1019.9hPa South 4.0mph /  6.4km/h 4.0mph /  6.4km/h 12% 0.00in /  0mm 986.0 W/m2
14:42 89.1 °F /  31.7 °C 27.7 °F /  -2.4 °C 30.11in /  1019.5hPa ESE 4.0mph /  6.4km/h 7.0mph /  11.3km/h 11% 0.00in /  0mm 977.0 W/m2
14:47 89.4 °F /  31.9 °C 25.7 °F /  -3.5 °C 30.12in /  1019.9hPa WNW 0.9mph /  1.4km/h 3.0mph /  4.8km/h 10% 0.00in /  0mm 967.0 W/m2
14:49 89.4 °F /  31.9 °C 28.0 °F /  -2.2 °C 30.11in /  1019.5hPa WNW 0.9mph /  1.4km/h 6.0mph /  9.7km/h 11% 0.00in /  0mm 965.0 W/m2
14:53 90.0 °F /  32.2 °C 26.1 °F /  -3.3 °C 30.11in /  1019.5hPa NNE 2.9mph /  4.7km/h 7.0mph /  11.3km/h 10% 0.00in /  0mm 954.0 W/m2
14:59 90.0 °F /  32.2 °C 26.1 °F /  -3.3 °C 30.11in /  1019.5hPa SW 2.0mph /  3.2km/h 4.0mph /  6.4km/h 10% 0.00in /  0mm 940.0 W/m2
15:04 89.4 °F /  31.9 °C 25.7 °F /  -3.5 °C 30.10in /  1019.2hPa Calm   1.0mph /  1.6km/h 10% 0.00in /  0mm 928.0 W/m2
15:09 90.0 °F /  32.2 °C 26.1 °F /  -3.3 °C 30.10in /  1019.2hPa Calm   5.0mph /  8km/h 10% 0.00in /  0mm 916.0 W/m2
15:11 90.3 °F /  32.4 °C 28.8 °F /  -1.8 °C 30.10in /  1019.2hPa Calm   3.0mph /  4.8km/h 11% 0.00in /  0mm 911.0 W/m2
15:18 91.6 °F /  33.1 °C 27.3 °F /  -2.6 °C 30.10in /  1019.2hPa NE 2.9mph /  4.7km/h 8.0mph /  12.9km/h 10% 0.00in /  0mm 895.0 W/m2
15:19 91.6 °F /  33.1 °C 27.3 °F /  -2.6 °C 30.10in /  1019.2hPa North 4.9mph /  7.9km/h 5.0mph /  8km/h 10% 0.00in /  0mm 891.0 W/m2
15:25 91.2 °F /  32.9 °C 27.1 °F /  -2.7 °C 30.09in /  1018.8hPa NW 2.9mph /  4.7km/h 7.0mph /  11.3km/h 10% 0.00in /  0mm 877.0 W/m2
15:30 91.8 °F /  33.2 °C 29.8 °F /  -1.2 °C 30.09in /  1018.8hPa West 4.9mph /  7.9km/h 6.0mph /  9.7km/h 11% 0.00in /  0mm 861.0 W/m2
15:35 92.1 °F /  33.4 °C 27.7 °F /  -2.4 °C 30.09in /  1018.8hPa NNW 8.1mph /  13km/h 9.0mph /  14.5km/h 10% 0.00in /  0mm 847.0 W/m2
15:43 91.8 °F /  33.2 °C 27.5 °F /  -2.5 °C 30.09in /  1018.8hPa WSW 2.0mph /  3.2km/h 5.0mph /  8km/h 10% 0.00in /  0mm 824.0 W/m2
15:44 91.6 °F /  33.1 °C 27.3 °F /  -2.6 °C 30.09in /  1018.8hPa NE 2.9mph /  4.7km/h 5.0mph /  8km/h 10% 0.00in /  0mm 817.0 W/m2
15:45 91.6 °F /  33.1 °C 27.3 °F /  -2.6 °C 30.09in /  1018.8hPa Calm   5.0mph /  8km/h 10% 0.00in /  0mm 816.0 W/m2
15:51 91.8 °F /  33.2 °C 29.8 °F /  -1.2 °C 30.08in /  1018.5hPa Calm   4.0mph /  6.4km/h 11% 0.00in /  0mm 800.0 W/m2
15:53 91.8 °F /  33.2 °C 27.5 °F /  -2.5 °C 30.08in /  1018.5hPa SSE 4.9mph /  7.9km/h 7.0mph /  11.3km/h 10% 0.00in /  0mm 793.0 W/m2
16:00 92.1 °F /  33.4 °C 27.7 °F /  -2.4 °C 30.08in /  1018.5hPa ENE 2.9mph /  4.7km/h 6.0mph /  9.7km/h 10% 0.00in /  0mm 777.0 W/m2
16:05 91.9 °F /  33.3 °C 25.0 °F /  -3.9 °C 30.07in /  1018.2hPa Calm   2.0mph /  3.2km/h 9% 0.00in /  0mm 759.0 W/m2
16:10 91.9 °F /  33.3 °C 27.7 °F /  -2.4 °C 30.07in /  1018.2hPa Calm   1.0mph /  1.6km/h 10% 0.00in /  0mm 744.0 W/m2
16:15 91.9 °F /  33.3 °C 30.0 °F /  -1.1 °C 30.05in /  1017.5hPa East 10.1mph /  16.3km/h 10.1mph /  16.3km/h 11% 0.00in /  0mm 728.0 W/m2
16:19 92.7 °F /  33.7 °C 28.2 °F /  -2.1 °C 30.07in /  1018.2hPa North 2.9mph /  4.7km/h 5.0mph /  8km/h 10% 0.00in /  0mm 724.0 W/m2
16:24 93.4 °F /  34.1 °C 28.8 °F /  -1.8 °C 30.07in /  1018.2hPa WNW 2.0mph /  3.2km/h 2.0mph /  3.2km/h 10% 0.00in /  0mm 719.0 W/m2
16:29 93.6 °F /  34.2 °C 28.8 °F /  -1.8 °C 30.07in /  1018.2hPa Calm   13.0mph /  20.9km/h 10% 0.00in /  0mm 722.0 W/m2
16:34 93.2 °F /  34 °C 26.1 °F /  -3.3 °C 30.07in /  1018.2hPa Calm   3.0mph /  4.8km/h 9% 0.00in /  0mm 719.0 W/m2
16:39 92.7 °F /  33.7 °C 28.2 °F /  -2.1 °C 30.06in /  1017.8hPa SW 2.0mph /  3.2km/h 7.0mph /  11.3km/h 10% 0.00in /  0mm 707.0 W/m2
16:44 91.9 °F /  33.3 °C 27.7 °F /  -2.4 °C 30.06in /  1017.8hPa NW 6.0mph /  9.7km/h 7.0mph /  11.3km/h 10% 0.00in /  0mm 83.0 W/m2
16:54 90.1 °F /  32.3 °C 26.2 °F /  -3.2 °C 30.05in /  1017.5hPa NE 0.9mph /  1.4km/h 4.0mph /  6.4km/h 10% 0.00in /  0mm 612.0 W/m2
16:58 90.1 °F /  32.3 °C 26.2 °F /  -3.2 °C 30.05in /  1017.5hPa NW 4.0mph /  6.4km/h 8.0mph /  12.9km/h 10% 0.00in /  0mm 654.0 W/m2
17:03 90.1 °F /  32.3 °C 28.6 °F /  -1.9 °C 30.05in /  1017.5hPa West 0.9mph /  1.4km/h 5.0mph /  8km/h 11% 0.00in /  0mm 114.0 W/m2
17:08 90.0 °F /  32.2 °C 28.4 °F /  -2 °C 30.05in /  1017.5hPa Calm   2.0mph /  3.2km/h 11% 0.00in /  0mm 93.0 W/m2
17:13 89.6 °F /  32 °C 30.2 °F /  -1 °C 30.05in /  1017.5hPa Calm   1.0mph /  1.6km/h 12% 0.00in /  0mm 90.0 W/m2
17:18 89.1 °F /  31.7 °C 27.7 °F /  -2.4 °C 30.05in /  1017.5hPa Calm   1.0mph /  1.6km/h 11% 0.00in /  0mm 111.0 W/m2
17:23 88.7 °F /  31.5 °C 29.7 °F /  -1.3 °C 30.05in /  1017.5hPa WSW 2.0mph /  3.2km/h 4.0mph /  6.4km/h 12% 0.00in /  0mm 100.0 W/m2
17:28 88.3 °F /  31.3 °C 27.1 °F /  -2.7 °C 30.05in /  1017.5hPa Calm     11% 0.00in /  0mm 98.0 W/m2
17:33 88.7 °F /  31.5 °C 27.5 °F /  -2.5 °C 30.05in /  1017.5hPa North 0.9mph /  1.4km/h 3.0mph /  4.8km/h 11% 0.00in /  0mm 155.0 W/m2
17:38 89.1 °F /  31.7 °C 27.7 °F /  -2.4 °C 30.05in /  1017.5hPa Calm   2.0mph /  3.2km/h 11% 0.00in /  0mm 109.0 W/m2
17:43 88.9 °F /  31.6 °C 27.5 °F /  -2.5 °C 30.05in /  1017.5hPa Calm   3.0mph /  4.8km/h 11% 0.00in /  0mm 123.0 W/m2
17:49 88.3 °F /  31.3 °C 29.3 °F /  -1.5 °C 30.05in /  1017.5hPa Calm     12% 0.00in /  0mm 100.0 W/m2
17:55 88.0 °F /  31.1 °C 28.9 °F /  -1.7 °C 30.05in /  1017.5hPa WSW 2.9mph /  4.7km/h 4.0mph /  6.4km/h 12% 0.00in /  0mm 102.0 W/m2
17:59 87.6 °F /  30.9 °C 28.8 °F /  -1.8 °C 30.05in /  1017.5hPa WSW 2.9mph /  4.7km/h 4.0mph /  6.4km/h 12% 0.00in /  0mm 98.0 W/m2
18:04 87.3 °F /  30.7 °C 28.4 °F /  -2 °C 30.05in /  1017.5hPa Calm   1.0mph /  1.6km/h 12% 0.00in /  0mm 86.0 W/m2
18:06 87.3 °F /  30.7 °C 28.4 °F /  -2 °C 30.05in /  1017.5hPa Calm   3.0mph /  4.8km/h 12% 0.00in /  0mm 81.0 W/m2
18:12 86.9 °F /  30.5 °C 30.2 °F /  -1 °C 30.05in /  1017.5hPa SSW 2.0mph /  3.2km/h 4.0mph /  6.4km/h 13% 0.00in /  0mm 70.0 W/m2
18:17 86.7 °F /  30.4 °C 28.0 °F /  -2.2 °C 30.05in /  1017.5hPa South 0.9mph /  1.4km/h 3.0mph /  4.8km/h 12% 0.00in /  0mm 69.0 W/m2
18:25 86.4 °F /  30.2 °C 27.7 °F /  -2.4 °C 30.05in /  1017.5hPa SE 2.9mph /  4.7km/h 8.0mph /  12.9km/h 12% 0.00in /  0mm 83.0 W/m2
18:30 86.2 °F /  30.1 °C 29.7 °F /  -1.3 °C 30.06in /  1017.8hPa Calm   6.0mph /  9.7km/h 13% 0.00in /  0mm 76.0 W/m2
18:34 86.2 °F /  30.1 °C 27.7 °F /  -2.4 °C 30.06in /  1017.8hPa SSW 0.9mph /  1.4km/h 3.0mph /  4.8km/h 12% 0.00in /  0mm 65.0 W/m2
18:39 86.2 °F /  30.1 °C 27.7 °F /  -2.4 °C 30.06in /  1017.8hPa Calm   4.0mph /  6.4km/h 12% 0.00in /  0mm 60.0 W/m2
18:44 86.2 °F /  30.1 °C 27.7 °F /  -2.4 °C 30.06in /  1017.8hPa SE 4.0mph /  6.4km/h 5.0mph /  8km/h 12% 0.00in /  0mm 70.0 W/m2
18:49 86.2 °F /  30.1 °C 27.7 °F /  -2.4 °C 30.06in /  1017.8hPa Calm   6.0mph /  9.7km/h 12% 0.00in /  0mm 54.0 W/m2
18:51 86.2 °F /  30.1 °C 27.7 °F /  -2.4 °C 30.06in /  1017.8hPa SE 2.9mph /  4.7km/h 4.0mph /  6.4km/h 12% 0.00in /  0mm 54.0 W/m2
18:57 86.2 °F /  30.1 °C 29.7 °F /  -1.3 °C 30.06in /  1017.8hPa SSE 0.9mph /  1.4km/h 6.0mph /  9.7km/h 13% 0.00in /  0mm 51.0 W/m2
19:02 86.4 °F /  30.2 °C 29.7 °F /  -1.3 °C 30.06in /  1017.8hPa SSE 2.0mph /  3.2km/h 2.0mph /  3.2km/h 13% 0.00in /  0mm 49.0 W/m2
19:08 86.2 °F /  30.1 °C 27.7 °F /  -2.4 °C 30.07in /  1018.2hPa South 4.9mph /  7.9km/h 8.0mph /  12.9km/h 12% 0.00in /  0mm 33.0 W/m2
19:14 85.6 °F /  29.8 °C 27.1 °F /  -2.7 °C 30.07in /  1018.2hPa ESE 6.9mph /  11.1km/h 11.0mph /  17.7km/h 12% 0.00in /  0mm 28.0 W/m2
19:19 85.3 °F /  29.6 °C 27.0 °F /  -2.8 °C 30.07in /  1018.2hPa Calm   3.0mph /  4.8km/h 12% 0.00in /  0mm 25.0 W/m2
19:24 84.9 °F /  29.4 °C 26.6 °F /  -3 °C 30.07in /  1018.2hPa South 2.9mph /  4.7km/h 3.0mph /  4.8km/h 12% 0.00in /  0mm 19.0 W/m2
19:29 84.7 °F /  29.3 °C 28.4 °F /  -2 °C 30.07in /  1018.2hPa SE 2.9mph /  4.7km/h 4.0mph /  6.4km/h 13% 0.00in /  0mm 14.0 W/m2
19:34 84.4 °F /  29.1 °C 28.2 °F /  -2.1 °C 30.08in /  1018.5hPa SSE 2.9mph /  4.7km/h 6.0mph /  9.7km/h 13% 0.00in /  0mm 9.0 W/m2
19:38 84.2 °F /  29 °C 28.0 °F /  -2.2 °C 30.08in /  1018.5hPa SSE 2.9mph /  4.7km/h 7.0mph /  11.3km/h 13% 0.00in /  0mm 5.0 W/m2
19:43 83.8 °F /  28.8 °C 27.7 °F /  -2.4 °C 30.08in /  1018.5hPa SSE 4.0mph /  6.4km/h 5.0mph /  8km/h 13% 0.00in /  0mm 0.0 W/m2
19:49 83.5 °F /  28.6 °C 27.5 °F /  -2.5 °C 30.08in /  1018.5hPa SE 4.0mph /  6.4km/h 7.0mph /  11.3km/h 13% 0.00in /  0mm 0.0 W/m2
19:54 83.1 °F /  28.4 °C 27.1 °F /  -2.7 °C 30.09in /  1018.8hPa SSE 2.9mph /  4.7km/h 8.0mph /  12.9km/h 13% 0.00in /  0mm 0.0 W/m2
19:59 82.9 °F /  28.3 °C 27.0 °F /  -2.8 °C 30.09in /  1018.8hPa SE 4.9mph /  7.9km/h 8.0mph /  12.9km/h 13% 0.00in /  0mm 0.0 W/m2
20:05 82.6 °F /  28.1 °C 26.8 °F /  -2.9 °C 30.09in /  1018.8hPa SE 6.0mph /  9.7km/h 7.0mph /  11.3km/h 13% 0.00in /  0mm 0.0 W/m2
20:09 82.4 °F /  28 °C 26.6 °F /  -3 °C 30.09in /  1018.8hPa SE 8.9mph /  14.3km/h 9.0mph /  14.5km/h 13% 0.00in /  0mm 0.0 W/m2
20:14 82.2 °F /  27.9 °C 26.4 °F /  -3.1 °C 30.09in /  1018.8hPa SE 6.9mph /  11.1km/h 8.0mph /  12.9km/h 13% 0.00in /  0mm 0.0 W/m2
20:19 82.0 °F /  27.8 °C 26.4 °F /  -3.1 °C 30.10in /  1019.2hPa ESE 6.0mph /  9.7km/h 6.0mph /  9.7km/h 13% 0.00in /  0mm 0.0 W/m2
20:24 81.7 °F /  27.6 °C 26.1 °F /  -3.3 °C 30.10in /  1019.2hPa SE 4.0mph /  6.4km/h 7.0mph /  11.3km/h 13% 0.00in /  0mm 0.0 W/m2
20:30 81.5 °F /  27.5 °C 25.9 °F /  -3.4 °C 30.10in /  1019.2hPa ESE 2.0mph /  3.2km/h 6.0mph /  9.7km/h 13% 0.00in /  0mm 0.0 W/m2
20:35 81.1 °F /  27.3 °C 25.7 °F /  -3.5 °C 30.10in /  1019.2hPa SE 2.9mph /  4.7km/h 8.0mph /  12.9km/h 13% 0.00in /  0mm 0.0 W/m2
20:40 81.0 °F /  27.2 °C 27.3 °F /  -2.6 °C 30.11in /  1019.5hPa East 2.0mph /  3.2km/h 6.0mph /  9.7km/h 14% 0.00in /  0mm 0.0 W/m2
20:46 80.6 °F /  27 °C 27.0 °F /  -2.8 °C 30.11in /  1019.5hPa ESE 0.9mph /  1.4km/h 8.0mph /  12.9km/h 14% 0.00in /  0mm 0.0 W/m2
20:51 80.2 °F /  26.8 °C 26.8 °F /  -2.9 °C 30.11in /  1019.5hPa ENE 4.9mph /  7.9km/h 5.0mph /  8km/h 14% 0.00in /  0mm 0.0 W/m2
20:56 80.1 °F /  26.7 °C 26.6 °F /  -3 °C 30.11in /  1019.5hPa SE 0.9mph /  1.4km/h 8.0mph /  12.9km/h 14% 0.00in /  0mm 0.0 W/m2
20:57 80.1 °F /  26.7 °C 26.6 °F /  -3 °C 30.11in /  1019.5hPa SE 2.9mph /  4.7km/h 9.0mph /  14.5km/h 14% 0.00in /  0mm 0.0 W/m2
21:02 79.9 °F /  26.6 °C 26.4 °F /  -3.1 °C 30.11in /  1019.5hPa ESE 2.9mph /  4.7km/h 7.0mph /  11.3km/h 14% 0.00in /  0mm 0.0 W/m2
21:08 79.5 °F /  26.4 °C 26.1 °F /  -3.3 °C 30.12in /  1019.9hPa South 2.0mph /  3.2km/h 5.0mph /  8km/h 14% 0.00in /  0mm 0.0 W/m2
21:09 79.5 °F /  26.4 °C 26.1 °F /  -3.3 °C 30.12in /  1019.9hPa ESE 2.9mph /  4.7km/h 5.0mph /  8km/h 14% 0.00in /  0mm 0.0 W/m2
21:15 79.2 °F /  26.2 °C 25.9 °F /  -3.4 °C 30.12in /  1019.9hPa ESE 2.0mph /  3.2km/h 7.0mph /  11.3km/h 14% 0.00in /  0mm 0.0 W/m2
21:20 79.0 °F /  26.1 °C 25.7 °F /  -3.5 °C 30.12in /  1019.9hPa SE 2.0mph /  3.2km/h 7.0mph /  11.3km/h 14% 0.00in /  0mm 0.0 W/m2
21:25 79.0 °F /  26.1 °C 25.7 °F /  -3.5 °C 30.12in /  1019.9hPa South 0.9mph /  1.4km/h 6.0mph /  9.7km/h 14% 0.00in /  0mm 0.0 W/m2
21:35 78.6 °F /  25.9 °C 25.5 °F /  -3.6 °C 30.13in /  1020.2hPa SE 2.0mph /  3.2km/h 6.0mph /  9.7km/h 14% 0.00in /  0mm 0.0 W/m2
21:37 78.6 °F /  25.9 °C 25.5 °F /  -3.6 °C 30.13in /  1020.2hPa Calm   3.0mph /  4.8km/h 14% 0.00in /  0mm 0.0 W/m2
21:42 78.4 °F /  25.8 °C 25.3 °F /  -3.7 °C 30.13in /  1020.2hPa SSE 2.0mph /  3.2km/h 4.0mph /  6.4km/h 14% 0.00in /  0mm 0.0 W/m2
21:47 78.3 °F /  25.7 °C 25.2 °F /  -3.8 °C 30.14in /  1020.5hPa Calm   2.0mph /  3.2km/h 14% 0.00in /  0mm 0.0 W/m2
21:52 78.1 °F /  25.6 °C 26.6 °F /  -3 °C 30.14in /  1020.5hPa Calm   1.0mph /  1.6km/h 15% 0.00in /  0mm 0.0 W/m2
21:58 77.9 °F /  25.5 °C 26.6 °F /  -3 °C 30.14in /  1020.5hPa Calm   1.0mph /  1.6km/h 15% 0.00in /  0mm 0.0 W/m2
22:01 77.7 °F /  25.4 °C 26.4 °F /  -3.1 °C 30.15in /  1020.9hPa Calm   2.0mph /  3.2km/h 15% 0.00in /  0mm 0.0 W/m2
22:07 77.5 °F /  25.3 °C 26.2 °F /  -3.2 °C 30.15in /  1020.9hPa Calm   4.0mph /  6.4km/h 15% 0.00in /  0mm 0.0 W/m2
22:12 77.4 °F /  25.2 °C 24.4 °F /  -4.2 °C 30.15in /  1020.9hPa SE 4.9mph /  7.9km/h 6.0mph /  9.7km/h 14% 0.00in /  0mm 0.0 W/m2
22:18 77.4 °F /  25.2 °C 24.4 °F /  -4.2 °C 30.15in /  1020.9hPa ESE 4.0mph /  6.4km/h 7.0mph /  11.3km/h 14% 0.00in /  0mm 0.0 W/m2
22:23 77.4 °F /  25.2 °C 24.4 °F /  -4.2 °C 30.15in /  1020.9hPa SSE 4.0mph /  6.4km/h 5.0mph /  8km/h 14% 0.00in /  0mm 0.0 W/m2
22:24 77.4 °F /  25.2 °C 24.4 °F /  -4.2 °C 30.15in /  1020.9hPa ESE 4.0mph /  6.4km/h 9.0mph /  14.5km/h 14% 0.00in /  0mm 0.0 W/m2
22:29 77.4 °F /  25.2 °C 24.4 °F /  -4.2 °C 30.15in /  1020.9hPa SE 2.0mph /  3.2km/h 3.0mph /  4.8km/h 14% 0.00in /  0mm 0.0 W/m2
22:34 77.2 °F /  25.1 °C 24.3 °F /  -4.3 °C 30.15in /  1020.9hPa SE 2.9mph /  4.7km/h 5.0mph /  8km/h 14% 0.00in /  0mm 0.0 W/m2
22:39 76.8 °F /  24.9 °C 24.1 °F /  -4.4 °C 30.15in /  1020.9hPa ESE 2.0mph /  3.2km/h 3.0mph /  4.8km/h 14% 0.00in /  0mm 0.0 W/m2
22:44 76.6 °F /  24.8 °C 23.9 °F /  -4.5 °C 30.16in /  1021.2hPa Calm   1.0mph /  1.6km/h 14% 0.00in /  0mm 0.0 W/m2
22:50 76.6 °F /  24.8 °C 23.9 °F /  -4.5 °C 30.16in /  1021.2hPa Calm   1.0mph /  1.6km/h 14% 0.00in /  0mm 0.0 W/m2
22:55 76.5 °F /  24.7 °C 23.7 °F /  -4.6 °C 30.16in /  1021.2hPa Calm   1.0mph /  1.6km/h 14% 0.00in /  0mm 0.0 W/m2
23:00 76.1 °F /  24.5 °C 25.2 °F /  -3.8 °C 30.16in /  1021.2hPa Calm     15% 0.00in /  0mm 0.0 W/m2
23:05 75.7 °F /  24.3 °C 26.4 °F /  -3.1 °C 30.16in /  1021.2hPa Calm   1.0mph /  1.6km/h 16% 0.00in /  0mm 0.0 W/m2
23:10 75.2 °F /  24 °C 25.9 °F /  -3.4 °C 30.16in /  1021.2hPa NW 0.9mph /  1.4km/h 1.0mph /  1.6km/h 16% 0.00in /  0mm 0.0 W/m2
23:15 74.7 °F /  23.7 °C 25.5 °F /  -3.6 °C 30.16in /  1021.2hPa SE 0.9mph /  1.4km/h 4.0mph /  6.4km/h 16% 0.00in /  0mm 0.0 W/m2
23:18 74.5 °F /  23.6 °C 23.7 °F /  -4.6 °C 30.17in /  1021.6hPa ESE 5.0mph /  8km/h 5.0mph /  8km/h 15% 0.00in /  0mm 0.0 W/m2
23:23 74.5 °F /  23.6 °C 23.7 °F /  -4.6 °C 30.17in /  1021.6hPa Calm   1.0mph /  1.6km/h 15% 0.00in /  0mm 0.0 W/m2
23:28 74.5 °F /  23.6 °C 23.7 °F /  -4.6 °C 30.17in /  1021.6hPa ESE 2.9mph /  4.7km/h 3.0mph /  4.8km/h 15% 0.00in /  0mm 0.0 W/m2
23:30 74.5 °F /  23.6 °C 23.7 °F /  -4.6 °C 30.17in /  1021.6hPa ESE 2.9mph /  4.7km/h 5.0mph /  8km/h 15% 0.00in /  0mm 0.0 W/m2
23:36 74.7 °F /  23.7 °C 22.3 °F /  -5.4 °C 30.17in /  1021.6hPa East 4.0mph /  6.4km/h 10.0mph /  16.1km/h 14% 0.00in /  0mm 0.0 W/m2
23:38 74.7 °F /  23.7 °C 22.3 °F /  -5.4 °C 30.17in /  1021.6hPa ESE 2.0mph /  3.2km/h 7.0mph /  11.3km/h 14% 0.00in /  0mm 0.0 W/m2
23:43 74.8 °F /  23.8 °C 22.5 °F /  -5.3 °C 30.17in /  1021.6hPa ESE 0.9mph /  1.4km/h 2.0mph /  3.2km/h 14% 0.00in /  0mm 0.0 W/m2
23:49 75.0 °F /  23.9 °C 22.6 °F /  -5.2 °C 30.17in /  1021.6hPa ESE 2.0mph /  3.2km/h 4.0mph /  6.4km/h 14% 0.00in /  0mm 0.0 W/m2
23:50 75.0 °F /  23.9 °C 20.8 °F /  -6.2 °C 30.17in /  1021.6hPa East 0.9mph /  1.4km/h 4.0mph /  6.4km/h 13% 0.00in /  0mm 0.0 W/m2
23:55 75.0 °F /  23.9 °C 20.8 °F /  -6.2 °C 30.17in /  1021.6hPa ENE 0.9mph /  1.4km/h 5.0mph /  8km/h 13% 0.00in /  0mm 0.0 W/m2
23:58 75.0 °F /  23.9 °C 22.6 °F /  -5.2 °C 30.17in /  1021.6hPa East 4.0mph /  6.4km/h 4.0mph /  6.4km/h 14% 0.00in /  0mm 0.0 W/m2
Olympia, Windhoek, Namibia
Compliments of Weather Underground - 3.5 mb